Terminal Aerodrome Forecast
Issued by NWS Burlington, VT

Home | Current Version | Previous Version | Text Only | Print | Product List | Glossary On
Versions: 1 2 3 4 5 6 7 8 9 10 11 12 13 14 15 16 17 18 19 20 21
000
FTUS41 KBTV 132338
TAFBTV
TAF
KBTV 132338Z 1400/1424 28012G25KT P6SM SCT030 OVC060
      TEMPO 1400/1404 BKN030
     FM140400 28009G16KT P6SM FEW200
     FM140900 27005KT P6SM SCT130
     FM141600 29009KT P6SM FEW250=

USA.gov is the U.S. government's official web portal to all federal, state and local government web resources and services.